Huvudsida
METAR-TAF:

METAR-TAF

Flygplatser :

Dallas/Fort Worth International Airport

Dallas / Fort Worth, Texas, USA

latitud: 32-53-49N, longitud: 097-01-19W, höjd: 183 m

Aktuellt väderrapport

Denna rapport gjordes för 36 minuter sedan, klockan 08:53 UTC
Stilla vind
Temperatur 4°C
Fuktighet 70%
Tryck 1023 hPa
Sikt: 16.1 km
Spridda moln på en höjd av 25000 ft

METAR: KDFW 160853Z 00000KT 10SM SCT250 04/M01 A3021 RMK AO2 SLP229 T00441011 55003

Tid: 03:29 (09:29 UTC)

Väderprognos

Denna rapport gjordes för 34 minuter sedan, klockan 08:55 UTC
Prognos gäller från 16 kl. 09 UTC till 17 kl. 12 UTC
Vind 3 kt från syd/sydväst
Sikt: 10 km
Spridda moln på en höjd av 30000 ft
Från 16 kl. 1800 UTC
Vind 8 kt från syd/sydväst
Sikt: 10 km
Mulet på en höjd av 25000 ft
Från 17 kl. 0000 UTC
Vind 4 kt från väst
Sikt: 10 km
Mulet på en höjd av 20000 ft

TAF: KDFW 160855Z 1609/1712 20003KT P6SM SCT300 FM161800 21008KT P6SM OVC250 FM170000 27004KT P6SM OVC200

Aktuella väderrapporter och prognoser från 4000 flygplatser (METAR- och TAF-rapporter).

De tillgängliga stationerna syns som gula och röda prickar på kartan.

För musen över prickarna för att se namnen på stationerna.

Klicka sedan för att få väderrapporter och prognoser.

För att ändra kartan: Klicka på de gröna knapparna med ett svart kors på för att zooma in; den gröna knappen med ett streck på för att zooma ut; eller på de gröna pilarna för angränsande kartor.


METAR-TAF: